»·PEaware :: N127CB KSNA-L71

N127CB :: KSNA-L71

FLIGHT INFORMATION

Flight Status: Arrived
Operator: Privately registered:
United States
More flights under this callsign
Pilot: Chris Beckett (15698)
Aircraft: Unknown
(HA4T)
More flights by this aircraft type
Origin: KSNA John Wayne-Orange Co
United States
Destination: L71 California City Mun
United States
More flights between these airports :: More routes between these airports
Route: +SLI V8 V363 POM V197 PMD
File this flight plan on PilotEdge
Remarks:
Altitude:
(Current/Filed)
12,000ft
Speed:
(Current/Filed)
340kts
Departed: 09-Aug-17 02:21 PM
Arrived: 09-Aug-17 02:52 PM
Distance/Time
Traveled:
89nm/0:31
Distance/Time
To Go:
Arrived

Flight Plot

Page will automatically refresh every two minutes.

Flight plan parsing failed; only flown route is shown


Map Options




Map Legend


Flown Route
Filed Route
Departure Airport
Arrival Airport
Navaid (VOR, NDB)
Fix

Horizontal Profiles

Position Reports

Time Latitude Longitude Heading Altitude Ground
Speed
09-Aug-17 14:03 33.676954 -117.872134 119 62ft 0kts
09-Aug-17 14:04 33.676954 -117.872134 119 62ft 0kts
09-Aug-17 14:05 33.676954 -117.872134 119 62ft 0kts
09-Aug-17 14:06 33.676954 -117.872134 119 62ft 0kts
09-Aug-17 14:07 33.676954 -117.872134 119 62ft 0kts
09-Aug-17 14:08 33.676954 -117.872134 119 62ft 0kts
09-Aug-17 14:09 33.676954 -117.872134 119 62ft 0kts
09-Aug-17 14:10 33.676954 -117.872134 119 62ft 0kts
09-Aug-17 14:11 33.676954 -117.872134 119 62ft 0kts
09-Aug-17 14:12 33.676954 -117.872134 119 62ft 0kts
09-Aug-17 14:13 33.676954 -117.872134 119 62ft 0kts
09-Aug-17 14:14 33.676954 -117.872134 119 62ft 0kts
09-Aug-17 14:15 33.676954 -117.872134 119 62ft 0kts
09-Aug-17 14:16 33.676954 -117.872134 119 62ft 0kts
09-Aug-17 14:17 33.676954 -117.872134 119 62ft 0kts
09-Aug-17 14:18 33.676954 -117.872134 119 62ft 0kts
09-Aug-17 14:19 33.676954 -117.872134 119 62ft 0kts
09-Aug-17 14:20 33.676782 -117.871713 115 62ft 11kts
09-Aug-17 14:21 33.678240 -117.868665 24 62ft 12kts
09-Aug-17 14:22 33.681913 -117.866197 95 62ft 0kts
09-Aug-17 14:23 33.680962 -117.865436 207 62ft 12kts
09-Aug-17 14:24 33.643358 -117.878182 187 2510ft 184kts
09-Aug-17 14:25 33.592274 -117.885131 187 4932ft 192kts
09-Aug-17 14:26 33.557162 -117.922323 261 6359ft 231kts
09-Aug-17 14:27 33.549374 -117.999708 261 7976ft 236kts
09-Aug-17 14:28 33.570703 -118.061696 358 8796ft 245kts
09-Aug-17 14:29 33.619265 -118.010778 50 12396ft 259kts
09-Aug-17 14:30 33.673649 -117.967783 23 13976ft 270kts
09-Aug-17 14:31 33.740604 -117.936504 20 13986ft 269kts
09-Aug-17 14:32 33.806981 -117.907134 20 13984ft 269kts
09-Aug-17 14:33 33.865038 -117.881508 20 13999ft 270kts
09-Aug-17 14:34 33.930198 -117.852712 20 13997ft 270kts
09-Aug-17 14:35 33.997614 -117.822870 20 14005ft 271kts
09-Aug-17 14:36 34.078203 -117.792836 0 14080ft 400kts
09-Aug-17 14:37 34.177859 -117.836331 336 13996ft 403kts
09-Aug-17 14:38 34.279927 -117.887437 336 14118ft 390kts
09-Aug-17 14:39 34.382971 -117.938984 336 14289ft 381kts
09-Aug-17 14:40 34.483335 -117.989297 336 13722ft 347kts
09-Aug-17 14:41 34.574138 -118.034956 336 14048ft 357kts
09-Aug-17 14:42 34.668732 -118.060800 4 14041ft 359kts
09-Aug-17 14:43 34.767333 -118.051537 3 14048ft 359kts
09-Aug-17 14:44 34.854959 -118.085207 332 12348ft 299kts
09-Aug-17 14:45 34.923100 -118.127232 332 10096ft 266kts
09-Aug-17 14:46 34.987315 -118.165858 332 8055ft 255kts
09-Aug-17 14:47 35.052323 -118.196656 8 8010ft 257kts
09-Aug-17 14:48 35.094711 -118.130296 73 7810ft 265kts
09-Aug-17 14:49 35.116096 -118.050539 72 4773ft 253kts
09-Aug-17 14:50 35.174558 -118.021779 350 4422ft 268kts
09-Aug-17 14:51 35.191171 -118.055011 180 4793ft 145kts
09-Aug-17 14:52 35.167308 -118.009678 101 3637ft 155kts
09-Aug-17 14:53 35.165294 -117.969058 182 3330ft 115kts
09-Aug-17 14:54 35.153351 -118.006601 254 2463ft 136kts
09-Aug-17 14:55 35.149436 -118.022865 165 2441ft 0kts
09-Aug-17 14:56 35.149436 -118.022865 165 2441ft 0kts
09-Aug-17 14:57 35.149436 -118.022865 165 2441ft 0kts
09-Aug-17 14:58 35.149436 -118.022865 165 2441ft 0kts
09-Aug-17 14:59 35.149436 -118.022865 165 2441ft 0kts
09-Aug-17 15:00 35.149436 -118.022865 165 2441ft 0kts
09-Aug-17 15:01 35.149436 -118.022865 165 2441ft 0kts
09-Aug-17 15:02 35.149436 -118.022865 165 2441ft 0kts
09-Aug-17 15:03 35.149436 -118.022865 165 2441ft 0kts
09-Aug-17 15:04 35.149436 -118.022865 165 2441ft 0kts
09-Aug-17 15:05 35.149436 -118.022865 165 2441ft 0kts
09-Aug-17 15:06 35.149436 -118.022865 165 2441ft 0kts
09-Aug-17 15:07 35.149436 -118.022865 165 2441ft 0kts
09-Aug-17 15:08 35.149436 -118.022865 165 2441ft 0kts
09-Aug-17 15:09 35.149436 -118.022865 165 2441ft 0kts

Navigation Log

Ident Type
Flight plan parsing failed, navigation log unavailable